^^
Garrymore Weather Station Historical Data
Daily Summary for November 28, 2020 Units:  Metric    English   Both
Daily Weekly Monthly Yearly Custom
  High: Low: Average:
Temperature: 3 °C -1 °C 1 °C
Dew Point: 2 °C -3 °C -1 °C
Humidity: 92% 83% 87%
Wind Speed: 5km/h 0km/h 1.5km/h
Wind Gust: 10km/h - -
Wind- - East
Pressure: 1019.4 hPa 1016.63 hPa -
Precipitation: 0 mm    
Historical Graphs
 
 
Tabular Data for November 28, 2020
Time Temperature Dew Point Pressure Wind Wind Speed Wind Gust Humidity Rainfall Rate (Hourly) solar
00:00 0 °C -3 °C 1017.98 hPa NE 2 km/h 3 km/h 83% 0 mm 0 W/m2
00:05 0 °C -3 °C 1017.98 hPa Calm   3 km/h 83% 0 mm 0 W/m2
00:10 -1 °C -3 °C 1017.98 hPa Calm   3 km/h 83% 0 mm 0 W/m2
00:15 -1 °C -3 °C 1017.61 hPa Calm   3 km/h 83% 0 mm 0 W/m2
00:20 -1 °C -3 °C 1017.71 hPa N 2 km/h 3 km/h 83% 0 mm 0 W/m2
00:25 -1 °C -3 °C 1017.71 hPa N 2 km/h 3 km/h 84% 0 mm 0 W/m2
00:30 -1 °C -3 °C 1017.68 hPa N 2 km/h 3 km/h 84% 0 mm 0 W/m2
00:35 -1 °C -3 °C 1017.61 hPa Calm   6 km/h 84% 0 mm 0 W/m2
00:40 -1 °C -3 °C 1017.58 hPa Calm   3 km/h 83% 0 mm 0 W/m2
00:45 -1 °C -3 °C 1017.61 hPa NE 2 km/h 3 km/h 83% 0 mm 0 W/m2
00:50 -1 °C -3 °C 1017.41 hPa NE 2 km/h 6 km/h 83% 0 mm 0 W/m2
00:55 0 °C -3 °C 1017.41 hPa E 2 km/h 6 km/h 84% 0 mm 0 W/m2
01:00 0 °C -3 °C 1017.41 hPa ESE 2 km/h 5 km/h 84% 0 mm 0 W/m2
01:05 0 °C -3 °C 1017.31 hPa SE 2 km/h 5 km/h 84% 0 mm 0 W/m2
01:10 0 °C -3 °C 1017.31 hPa SE 3 km/h 6 km/h 84% 0 mm 0 W/m2
01:15 0 °C -3 °C 1017.2 hPa SE 2 km/h 5 km/h 84% 0 mm 0 W/m2
01:20 0 °C -3 °C 1017.31 hPa ESE 2 km/h 5 km/h 84% 0 mm 0 W/m2
01:25 0 °C -3 °C 1017.1 hPa ENE 2 km/h 3 km/h 84% 0 mm 0 W/m2
01:30 0 °C -3 °C 1017.2 hPa ENE 2 km/h 3 km/h 84% 0 mm 0 W/m2
01:35 0 °C -2 °C 1017.2 hPa E 2 km/h 3 km/h 84% 0 mm 0 W/m2
01:40 0 °C -2 °C 1017.2 hPa ENE 2 km/h 3 km/h 84% 0 mm 0 W/m2
01:45 0 °C -2 °C 1017.1 hPa E 5 km/h 10 km/h 84% 0 mm 0 W/m2
01:50 1 °C -2 °C 1017.1 hPa E 3 km/h 10 km/h 84% 0 mm 0 W/m2
01:55 1 °C -1 °C 1016.9 hPa ESE 2 km/h 5 km/h 85% 0 mm 0 W/m2
02:00 1 °C -1 °C 1017.1 hPa ESE 2 km/h 3 km/h 85% 0 mm 0 W/m2
02:05 1 °C -1 °C 1017 hPa ENE 2 km/h 3 km/h 85% 0 mm 0 W/m2
02:10 1 °C -2 °C 1017 hPa NE 2 km/h 6 km/h 85% 0 mm 0 W/m2
02:15 0 °C -2 °C 1017.1 hPa NNE 2 km/h 5 km/h 85% 0 mm 0 W/m2
02:20 0 °C -2 °C 1017 hPa NE 2 km/h 5 km/h 85% 0 mm 0 W/m2
02:25 0 °C -2 °C 1017.17 hPa NE 2 km/h 6 km/h 85% 0 mm 0 W/m2
02:30 0 °C -2 °C 1016.9 hPa NE 2 km/h 5 km/h 85% 0 mm 0 W/m2
02:35 0 °C -2 °C 1017.1 hPa NE 2 km/h 6 km/h 85% 0 mm 0 W/m2
02:40 0 °C -2 °C 1017 hPa NE 2 km/h 3 km/h 85% 0 mm 0 W/m2
02:45 0 °C -2 °C 1016.9 hPa ENE 2 km/h 3 km/h 85% 0 mm 0 W/m2
02:50 0 °C -2 °C 1016.9 hPa Calm   3 km/h 85% 0 mm 0 W/m2
02:55 0 °C -2 °C 1017 hPa NE 2 km/h 3 km/h 85% 0 mm 0 W/m2
03:00 0 °C -2 °C 1016.8 hPa NE 2 km/h 3 km/h 85% 0 mm 0 W/m2
03:05 0 °C -2 °C 1016.9 hPa NE 2 km/h 3 km/h 85% 0 mm 0 W/m2
03:10 0 °C -2 °C 1016.7 hPa Calm   5 km/h 85% 0 mm 0 W/m2
03:15 0 °C -2 °C 1017 hPa Calm   2 km/h 85% 0 mm 0 W/m2
03:20 0 °C -2 °C 1016.9 hPa ESE 2 km/h 3 km/h 85% 0 mm 0 W/m2
03:25 0 °C -2 °C 1016.9 hPa Calm   3 km/h 85% 0 mm 0 W/m2
03:30 0 °C -2 °C 1016.9 hPa Calm     85% 0 mm 0 W/m2
03:35 0 °C -2 °C 1016.9 hPa Calm     85% 0 mm 0 W/m2
03:40 0 °C -2 °C 1016.9 hPa Calm   2 km/h 85% 0 mm 0 W/m2
03:45 0 °C -2 °C 1017 hPa Calm   2 km/h 85% 0 mm 0 W/m2
03:50 0 °C -2 °C 1016.9 hPa Calm     85% 0 mm 0 W/m2
03:55 0 °C -2 °C 1017 hPa Calm     85% 0 mm 0 W/m2
04:00 0 °C -2 °C 1017 hPa Calm   2 km/h 85% 0 mm 0 W/m2
04:05 0 °C -2 °C 1016.8 hPa Calm   2 km/h 85% 0 mm 0 W/m2
04:10 0 °C -2 °C 1016.8 hPa Calm     86% 0 mm 0 W/m2
04:15 0 °C -2 °C 1016.9 hPa Calm   2 km/h 86% 0 mm 0 W/m2
04:20 0 °C -2 °C 1016.9 hPa WNW 2 km/h 3 km/h 86% 0 mm 0 W/m2
04:25 0 °C -2 °C 1016.9 hPa NNE 2 km/h 3 km/h 86% 0 mm 0 W/m2
04:30 1 °C -2 °C 1016.9 hPa NE 2 km/h 5 km/h 86% 0 mm 0 W/m2
04:35 1 °C -2 °C 1016.9 hPa NE 2 km/h 5 km/h 86% 0 mm 0 W/m2
04:40 1 °C -1 °C 1016.8 hPa NE 2 km/h 5 km/h 86% 0 mm 0 W/m2
04:45 1 °C -1 °C 1016.8 hPa ENE 3 km/h 6 km/h 86% 0 mm 0 W/m2
04:50 1 °C -1 °C 1016.63 hPa NE 5 km/h 8 km/h 86% 0 mm 0 W/m2
04:55 1 °C -1 °C 1016.9 hPa NNE 2 km/h 8 km/h 85% 0 mm 0 W/m2
05:00 1 °C -1 °C 1016.73 hPa NNE 2 km/h 5 km/h 86% 0 mm 0 W/m2
05:05 1 °C -1 °C 1016.9 hPa NE 2 km/h 5 km/h 86% 0 mm 0 W/m2
05:10 1 °C -1 °C 1017.1 hPa NE 2 km/h 5 km/h 86% 0 mm 0 W/m2
05:15 1 °C -1 °C 1017 hPa NNE 2 km/h 3 km/h 86% 0 mm 0 W/m2
05:20 1 °C -1 °C 1016.9 hPa NE 2 km/h 3 km/h 86% 0 mm 0 W/m2
05:25 1 °C -1 °C 1017 hPa Calm   3 km/h 86% 0 mm 0 W/m2
05:30 1 °C -1 °C 1016.9 hPa NE 3 km/h 5 km/h 86% 0 mm 0 W/m2
05:35 1 °C -1 °C 1016.9 hPa Calm   5 km/h 86% 0 mm 0 W/m2
05:40 2 °C -1 °C 1017 hPa Calm   2 km/h 86% 0 mm 0 W/m2
05:45 2 °C -1 °C 1017.1 hPa Calm   2 km/h 86% 0 mm 0 W/m2
05:50 2 °C 0 °C 1017.2 hPa NE 2 km/h 3 km/h 87% 0 mm 0 W/m2
05:55 2 °C 0 °C 1017.1 hPa NE 3 km/h 5 km/h 87% 0 mm 0 W/m2
06:00 2 °C 0 °C 1017.1 hPa S 2 km/h 5 km/h 87% 0 mm 0 W/m2
06:05 2 °C 0 °C 1017.31 hPa SSW 2 km/h 3 km/h 87% 0 mm 0 W/m2
06:10 2 °C 0 °C 1017.51 hPa SSW 2 km/h 3 km/h 87% 0 mm 0 W/m2
06:15 2 °C 0 °C 1017.47 hPa Calm   3 km/h 87% 0 mm 0 W/m2
06:20 2 °C 0 °C 1017.41 hPa Calm   2 km/h 87% 0 mm 0 W/m2
06:25 2 °C 0 °C 1017.51 hPa Calm     87% 0 mm 0 W/m2
06:30 2 °C 0 °C 1017.61 hPa Calm     87% 0 mm 0 W/m2
06:35 2 °C 0 °C 1017.61 hPa ESE 2 km/h 3 km/h 87% 0 mm 0 W/m2
06:40 2 °C 0 °C 1017.61 hPa Calm   3 km/h 87% 0 mm 0 W/m2
06:45 2 °C 0 °C 1017.91 hPa Calm     87% 0 mm 0 W/m2
06:50 2 °C 0 °C 1017.81 hPa Calm     87% 0 mm 0 W/m2
06:55 2 °C 0 °C 1017.91 hPa Calm     87% 0 mm 0 W/m2
07:00 2 °C 0 °C 1017.88 hPa Calm   2 km/h 87% 0 mm 0 W/m2
07:05 2 °C 1 °C 1018.08 hPa Calm   2 km/h 92% 0 mm 0 W/m2
07:10 2 °C 1 °C 1017.91 hPa Calm   2 km/h 92% 0 mm 0 W/m2
07:15 2 °C 1 °C 1018.08 hPa Calm   2 km/h 92% 0 mm 0 W/m2
07:20 2 °C 1 °C 1018.29 hPa NW 2 km/h 3 km/h 92% 0 mm 0 W/m2
07:25 2 °C 1 °C 1018.12 hPa N 2 km/h 3 km/h 92% 0 mm 0 W/m2
07:30 2 °C 1 °C 1018.39 hPa N 5 km/h 6 km/h 92% 0 mm 0 W/m2
07:35 2 °C 1 °C 1018.29 hPa N 3 km/h 6 km/h 92% 0 mm 0 W/m2
07:40 2 °C 1 °C 1018.29 hPa N 3 km/h 5 km/h 92% 0 mm 0 W/m2
07:45 3 °C 1 °C 1018.29 hPa N 3 km/h 6 km/h 92% 0 mm 0 W/m2
07:50 3 °C 1 °C 1018.42 hPa N 3 km/h 5 km/h 92% 0 mm 0 W/m2
07:55 3 °C 1 °C 1018.59 hPa N 3 km/h 5 km/h 92% 0 mm 0 W/m2
08:00 3 °C 2 °C 1018.49 hPa N 2 km/h 5 km/h 92% 0 mm 0 W/m2
08:05 3 °C 2 °C 1018.59 hPa N 5 km/h 6 km/h 92% 0 mm 0 W/m2
08:10 3 °C 2 °C 1018.69 hPa N 2 km/h 5 km/h 91% 0 mm 0 W/m2
08:15 3 °C 2 °C 1018.96 hPa N 2 km/h 5 km/h 92% 0 mm 0 W/m2
08:20 3 °C 2 °C 1018.73 hPa NNE 2 km/h 3 km/h 92% 0 mm 0 W/m2
08:25 3 °C 2 °C 1019 hPa Calm   5 km/h 92% 0 mm 0 W/m2
08:30 3 °C 2 °C 1019.1 hPa NNE 2 km/h 3 km/h 92% 0 mm 0 W/m2
08:35 3 °C 2 °C 1019.1 hPa Calm   2 km/h 92% 0 mm 0 W/m2
08:40 3 °C 2 °C 1019.1 hPa Calm   2 km/h 92% 0 mm 0 W/m2
08:45 3 °C 2 °C 1019.3 hPa NW 2 km/h 3 km/h 92% 0 mm 0 W/m2
08:50 3 °C 2 °C 1019.4 hPa N 2 km/h 3 km/h 92% 0 mm 0 W/m2
08:55 3 °C 2 °C 1019.4 hPa NNE 2 km/h 6 km/h 92% 0 mm 0 W/m2
Garrymore Weather Station, Geashill, Tullamore, Offaly, Ireland
Compliments of Weather Underground - 2 mb